Time;durP1;ratioP1;P1;durP2;ratioP2;P2;SDS_P1;SDS_P2;PMS_P1;PMS_P2;Temp;Humidity;BMP_temperature;BMP_pressure;BME280_temperature;BME280_humidity;BME280_pressure;Samples;Min_cycle;Max_cycle;Signal;HPM_P1;HPM_P2
2022/11/23 00:02:02;;;;;;;;;8.50;5.00;;;;;6.78;90.35;99196.94;6044592;23;45504;-92
2022/11/23 00:04:41;;;;;;;;;4.00;3.50;;;;;6.33;89.72;99135.94;6048793;23;44748;-93
2022/11/23 00:07:29;;;;;;;;;;;;;;;;;;;;;
2022/11/23 00:17:14;;;;;;;;;7.00;4.50;;;;;6.49;89.76;99170.50;6178888;23;45167;-92
2022/11/23 00:19:47;;;;;;;;;6.00;4.25;;;;;5.24;89.88;98969.00;6174497;23;45390;-91
2022/11/23 00:22:33;;;;;;;;;7.75;7.00;;;;;6.38;89.15;99157.66;6167665;23;46272;-94
2022/11/23 00:25:11;;;;;;;;;4.25;3.00;;;;;6.32;90.07;99165.69;6168710;23;45302;-92
2022/11/23 00:27:46;;;;;;;;;6.50;4.00;;;;;5.51;90.30;99027.75;6168894;23;45255;-92
2022/11/23 00:30:30;;;;;;;;;6.50;3.75;;;;;4.12;89.89;98806.66;6161177;23;45351;-93
2022/11/23 00:33:05;;;;;;;;;6.25;6.25;;;;;6.27;91.19;99171.94;6160700;23;45533;-93
2022/11/23 00:35:40;;;;;;;;;4.50;4.50;;;;;5.10;90.80;98981.53;6132185;23;45391;-93
2022/11/23 00:38:19;;;;;;;;;7.00;5.75;;;;;5.06;90.55;98986.00;6164242;23;45275;-94
2022/11/23 00:40:49;;;;;;;;;10.75;6.25;;;;;4.42;90.06;98873.13;6168881;23;45213;-93
2022/11/23 00:43:20;;;;;;;;;4.50;3.00;;;;;5.82;90.59;99096.94;6147848;23;45672;-94
2022/11/23 00:45:56;;;;;;;;;;;;;;;;;;;;;
2022/11/23 00:48:48;;;;;;;;;4.00;4.00;;;;;5.58;91.37;99052.03;6171696;23;44673;-92
2022/11/23 00:51:39;;;;;;;;;3.25;2.25;;;;;6.20;90.88;99153.72;6158733;23;45406;-92
2022/11/23 00:54:17;;;;;;;;;6.75;3.75;;;;;5.61;90.94;99057.22;6162946;23;45357;-93
2022/11/23 00:56:51;;;;;;;;;3.00;3.00;;;;;4.84;91.00;98935.84;6156118;23;44832;-92
2022/11/23 00:59:24;;;;;;;;;2.00;2.00;;;;;4.18;90.79;98823.06;6155706;23;45334;-91
2022/11/23 01:01:49;;;;;;;;;3.75;3.00;;;;;6.20;90.29;99168.63;6155382;23;45374;-93
2022/11/23 01:04:15;;;;;;;;;3.75;3.75;;;;;4.53;91.17;98872.88;6164198;23;46997;-91
2022/11/23 01:06:46;;;;;;;;;8.50;3.25;;;;;4.14;90.66;98815.31;6164324;23;45184;-91
2022/11/23 01:09:29;;;;;;;;;;;;;;;;;;;;;
2022/11/23 01:35:28;;;;;;;;;6.75;3.00;;;;;5.71;91.73;99084.09;6162860;23;45306;-93
2022/11/23 01:38:08;;;;;;;;;3.75;1.25;;;;;4.09;91.47;98816.25;6163962;23;45253;-93
2022/11/23 01:44:43;;;;;;;;;7.00;3.00;;;;;5.89;91.96;99116.88;6105033;23;45207;-92
2022/11/23 01:47:13;;;;;;;;;4.00;4.00;;;;;3.92;91.09;98789.63;6106696;23;45285;-90
2022/11/23 01:49:54;;;;;;;;;2.50;2.00;;;;;5.83;91.18;99117.00;6082936;23;45182;-92
2022/11/23 01:52:25;;;;;;;;;3.00;2.75;;;;;5.41;91.47;99034.09;6081548;23;47736;-93
2022/11/23 01:55:16;;;;;;;;;7.00;3.00;;;;;4.60;91.86;98903.22;6101961;23;45236;-94
2022/11/23 01:57:48;;;;;;;;;7.25;6.00;;;;;5.77;91.60;99120.66;6070280;23;45280;-94
2022/11/23 02:00:16;;;;;;;;;5.00;3.75;;;;;4.67;91.38;98915.28;6077047;23;45309;-93
2022/11/23 02:02:52;;;;;;;;;3.50;3.50;;;;;5.75;92.10;99111.94;6073730;23;46664;-93
2022/11/23 02:05:38;;;;;;;;;8.00;6.00;;;;;5.28;91.78;99046.63;6075593;23;45335;-93
2022/11/23 02:08:22;;;;;;;;;6.25;5.25;;;;;4.38;91.22;98877.53;6098628;23;45243;-92
2022/11/23 02:10:48;;;;;;;;;7.75;5.00;;;;;5.08;91.42;98999.06;6083724;23;45215;-94
2022/11/23 02:13:30;;;;;;;;;4.75;4.75;;;;;3.71;91.87;98759.56;6107347;23;46957;-93
2022/11/23 02:16:01;;;;;;;;;3.50;3.50;;;;;4.60;91.50;98905.84;6109936;23;44593;-93
2022/11/23 02:18:44;;;;;;;;;8.00;6.50;;;;;5.75;91.66;99095.34;6156177;23;44773;-92
2022/11/23 02:21:17;;;;;;;;;7.50;7.50;;;;;5.76;92.00;99091.84;6167767;23;45398;-91
2022/11/23 02:24:18;;;;;;;;;6.50;5.75;;;;;5.78;92.17;99095.28;6162894;23;45119;-92
2022/11/23 02:27:06;;;;;;;;;6.75;6.75;;;;;5.38;91.87;99012.34;6139443;23;44828;-92
2022/11/23 02:29:35;;;;;;;;;5.00;4.75;;;;;3.82;92.11;98772.41;6132946;23;45221;-91
2022/11/23 02:38:48;;;;;;;;;3.75;2.75;;;;;5.82;92.22;99087.28;6174428;23;45366;-92
2022/11/23 02:41:13;;;;;;;;;8.50;8.25;;;;;5.05;91.65;98947.59;6173439;23;44791;-92
2022/11/23 02:43:43;;;;;;;;;8.25;4.25;;;;;4.65;92.37;98867.38;6169938;23;45205;-92
2022/11/23 02:46:09;;;;;;;;;9.00;6.00;;;;;4.60;92.95;98850.91;6114784;23;46753;-93
2022/11/23 02:48:44;;;;;;;;;8.00;6.75;;;;;4.79;92.42;98894.06;6161840;23;45127;-92
2022/11/23 02:51:36;;;;;;;;;7.50;7.50;;;;;5.91;92.41;99059.16;6165773;23;45272;-91
2022/11/23 02:54:29;;;;;;;;;7.00;6.00;;;;;5.45;92.52;98983.34;6132036;23;45316;-92
2022/11/23 02:57:03;;;;;;;;;6.25;5.50;;;;;5.01;92.00;98911.94;6164384;23;46210;-92
2022/11/23 02:59:32;;;;;;;;;6.25;3.00;;;;;5.08;92.07;98920.47;6161742;23;45196;-93
2022/11/23 03:02:14;;;;;;;;;5.50;5.50;;;;;5.77;92.98;99021.00;6139206;23;45267;-91
2022/11/23 03:04:46;;;;;;;;;6.75;5.50;;;;;4.38;92.69;98787.75;6137759;23;45408;-90
2022/11/23 03:07:12;;;;;;;;;8.00;5.75;;;;;4.32;92.60;98791.34;6156544;23;48105;-92
2022/11/23 03:09:41;;;;;;;;;11.00;7.00;;;;;5.82;93.05;99024.38;6164323;23;45308;-92
2022/11/23 03:12:15;;;;;;;;;7.75;7.00;;;;;4.71;92.42;98840.19;6170761;23;44646;-92
2022/11/23 03:14:52;;;;;;;;;6.00;6.00;;;;;5.50;92.89;98960.50;6171389;23;45358;-93
2022/11/23 03:17:23;;;;;;;;;5.75;5.25;;;;;4.74;93.09;98827.03;6165527;23;46844;-92
2022/11/23 03:22:55;;;;;;;;;5.25;5.25;;;;;5.69;93.24;98994.09;6139871;23;44821;-92
2022/11/23 03:25:59;;;;;;;;;6.75;5.50;;;;;5.94;93.00;99028.44;6116696;23;45236;-92
2022/11/23 03:28:38;;;;;;;;;5.50;5.00;;;;;4.92;93.36;98854.50;6106074;23;46457;-92
2022/11/23 03:31:09;;;;;;;;;6.75;6.75;;;;;3.86;92.45;98674.75;6104227;23;45404;-91
2022/11/23 03:33:54;;;;;;;;;6.00;4.50;;;;;5.96;93.00;99037.13;6103545;23;44888;-91
2022/11/23 03:39:37;;;;;;;;;5.00;5.00;;;;;4.85;92.81;98830.25;6114137;23;45200;-92
2022/11/23 03:42:06;;;;;;;;;4.50;4.50;;;;;4.17;92.79;98708.03;6086822;23;45300;-91
2022/11/23 03:44:44;;;;;;;;;6.75;6.75;;;;;5.04;92.49;98856.84;6119803;23;45256;-92
2022/11/23 03:50:28;;;;;;;;;7.50;3.25;;;;;5.57;93.18;98934.13;6099535;23;45468;-92
2022/11/23 03:53:11;;;;;;;;;;;;;;;;;;;;;
2022/11/23 03:55:44;;;;;;;;;5.75;5.00;;;;;4.68;92.71;98796.63;6088324;23;67573;-91
2022/11/23 03:58:15;;;;;;;;;5.50;5.50;;;;;3.80;92.45;98648.75;6109549;23;45256;-91
2022/11/23 04:00:55;;;;;;;;;8.75;8.75;;;;;4.71;92.73;98775.63;6160650;23;45554;-91
2022/11/23 04:03:20;;;;;;;;;7.00;7.00;;;;;6.04;93.42;99008.97;6135005;23;45343;-92
2022/11/23 04:05:49;;;;;;;;;5.75;4.50;;;;;5.04;92.80;98851.63;6136780;23;45413;-92
2022/11/23 04:08:14;;;;;;;;;5.00;4.75;;;;;4.62;93.59;98783.69;6139636;23;45369;-92
2022/11/23 04:10:43;;;;;;;;;7.25;6.75;;;;;5.63;93.44;98939.22;6145652;23;45814;-91
2022/11/23 04:13:09;;;;;;;;;7.00;7.00;;;;;4.60;93.37;98751.44;6142566;23;44682;-91
2022/11/23 04:15:42;;;;;;;;;8.25;7.25;;;;;5.64;93.14;98927.84;6137863;23;44631;-93
2022/11/23 04:18:11;;;;;;;;;13.25;8.25;;;;;4.50;93.30;98719.44;6132737;23;45202;-92
2022/11/23 04:23:47;;;;;;;;;7.50;7.50;;;;;4.53;93.50;98739.44;6161799;23;45256;-92
2022/11/23 04:26:22;;;;;;;;;7.00;7.00;;;;;5.67;93.58;98914.66;6140475;23;45156;-92
2022/11/23 04:29:17;;;;;;;;;6.50;5.25;;;;;4.00;93.64;98646.53;6136262;23;44868;-92
2022/11/23 04:32:13;;;;;;;;;7.00;7.00;;;;;5.74;93.43;98926.69;6133799;23;47514;-92
2022/11/23 04:35:33;;;;;;;;;;;;;;;;;;;;;
2022/11/23 04:38:14;;;;;;;;;6.75;6.25;;;;;5.92;93.86;98948.06;6167360;23;68132;-91
2022/11/23 04:40:39;;;;;;;;;7.25;4.75;;;;;4.97;93.45;98798.53;6116732;23;45561;-92
2022/11/23 04:43:30;;;;;;;;;6.00;6.00;;;;;4.22;94.36;98646.00;6141635;23;46544;-92
2022/11/23 04:46:13;;;;;;;;;3.75;3.75;;;;;4.47;94.11;98692.50;6072040;23;45209;-92
2022/11/23 04:48:38;;;;;;;;;11.50;8.00;;;;;4.82;93.50;98735.22;6072740;23;45406;-92
2022/11/23 04:51:07;;;;;;;;;11.00;8.00;;;;;5.38;93.91;98840.25;6075113;23;44948;-91
2022/11/23 04:53:32;;;;;;;;;5.25;5.00;;;;;5.07;94.25;98795.66;6069878;23;47668;-91
2022/11/23 04:56:14;;;;;;;;;8.25;5.50;;;;;5.49;95.11;98864.41;6074269;23;45219;-94
2022/11/23 04:58:52;;;;;;;;;6.75;6.75;;;;;6.14;94.64;98959.75;6059046;23;44687;-94
2022/11/23 05:01:25;;;;;;;;;7.50;7.50;;;;;4.47;94.42;98675.03;6084031;23;44888;-94
2022/11/23 05:14:44;;;;;;;;;10.00;5.75;;;;;6.15;95.31;98943.09;6019089;23;44672;-94
2022/11/23 05:17:23;;;;;;;;;13.25;7.00;;;;;5.30;95.19;98797.69;6018248;23;45044;-95
2022/11/23 05:20:13;;;;;;;;;7.25;6.00;;;;;6.15;95.18;98930.00;6003433;23;44694;-94
2022/11/23 05:22:45;;;;;;;;;8.50;6.00;;;;;6.20;95.82;98946.44;5969650;23;45455;-96
2022/11/23 05:48:21;;;;;;;;;8.25;7.50;;;;;6.39;95.58;98956.41;5973814;23;44893;-94
2022/11/23 05:54:53;;;;;;;;;11.00;8.75;;;;;5.40;96.02;98787.81;5968922;23;44890;-95
2022/11/23 06:04:15;;;;;;;;;;;;;;;;;;;;;
2022/11/23 06:07:22;;;;;;;;;6.00;5.00;;;;;6.04;95.96;98861.22;5889110;24;74306;-95
2022/11/23 06:09:57;;;;;;;;;13.25;11.25;;;;;6.52;96.42;98952.53;5862397;24;44718;-96
2022/11/23 06:12:26;;;;;;;;;7.50;6.00;;;;;4.59;95.72;98625.00;5858638;24;45209;-95
2022/11/23 06:15:16;;;;;;;;;7.00;7.00;;;;;6.55;96.68;98928.81;5875589;24;44953;-95
2022/11/23 06:18:32;;;;;;;;;;;;;;;;;;;;;
2022/11/23 06:42:13;;;;;;;;;;;;;;;;;;;;;
2022/11/23 06:48:36;;;;;;;;;5.50;3.50;;;;;6.94;96.08;98890.91;5779698;24;44780;-95
2022/11/23 07:12:00;;;;;;;;;3.00;3.00;;;;;5.21;95.82;98549.94;5896077;23;45884;-95
2022/11/23 07:21:38;;;;;;;;;3.25;3.25;;;;;6.47;94.73;98760.22;5891306;23;45462;-94
2022/11/23 07:24:06;;;;;;;;;7.75;3.00;;;;;7.16;94.97;98891.06;5866321;24;47210;-94
2022/11/23 07:26:40;;;;;;;;;5.75;4.25;;;;;7.14;95.07;98897.28;5881675;24;45309;-94
2022/11/23 07:35:44;;;;;;;;;1.00;1.00;;;;;4.93;92.79;98547.28;5948896;23;44810;-95
2022/11/23 07:45:06;;;;;;;;;3.00;3.00;;;;;6.97;93.50;98896.06;5969405;23;44729;-94
2022/11/23 07:55:06;;;;;;;;;0.50;0.50;;;;;5.74;94.06;98706.47;5956369;23;45421;-94
2022/11/23 08:01:50;;;;;;;;;1.50;1.00;;;;;6.84;94.15;98889.47;5914652;23;44898;-94
2022/11/23 08:07:22;;;;;;;;;5.75;4.00;;;;;6.18;94.17;98780.34;6183740;22;44847;-94
2022/11/23 08:10:03;;;;;;;;;3.00;3.00;;;;;6.17;94.23;98780.41;6114797;22;45495;-94
2022/11/23 08:12:31;;;;;;;;;1.75;1.75;;;;;5.75;93.97;98726.53;6203029;22;45605;-93
2022/11/23 08:15:04;;;;;;;;;3.50;3.00;;;;;6.83;94.29;98903.50;6219859;22;45163;-94
2022/11/23 08:17:44;;;;;;;;;2.25;1.50;;;;;6.40;95.04;98821.69;6197762;22;44735;-94
2022/11/23 08:20:15;;;;;;;;;1.50;1.50;;;;;5.22;93.90;98618.91;6211803;22;45216;-93
2022/11/23 08:22:54;;;;;;;;;2.00;2.00;;;;;6.38;94.38;98816.47;6173957;22;46530;-93
2022/11/23 08:25:30;;;;;;;;;5.25;3.50;;;;;6.36;95.24;98825.28;6201554;22;45188;-92
2022/11/23 08:28:01;;;;;;;;;4.00;4.00;;;;;6.80;94.60;98888.69;6207602;22;45225;-92
2022/11/23 08:35:39;;;;;;;;;8.25;8.25;;;;;5.72;94.93;98684.66;6229041;22;45224;-92
2022/11/23 08:38:19;;;;;;;;;3.75;3.00;;;;;6.19;94.68;98742.69;6173065;22;45220;-93
2022/11/23 08:40:58;;;;;;;;;4.50;3.00;;;;;5.74;94.41;98645.28;6189536;23;45334;-90
2022/11/23 08:43:39;;;;;;;;;7.25;6.00;;;;;5.78;94.58;98645.16;6161861;23;47829;-92
2022/11/23 08:46:33;;;;;;;;;2.00;2.00;;;;;6.61;94.77;98762.41;6166934;23;45240;-92
2022/11/23 08:48:58;;;;;;;;;6.00;3.25;;;;;5.47;94.86;98549.13;6161377;23;44812;-93
2022/11/23 08:51:26;;;;;;;;;1.75;1.00;;;;;7.12;94.91;98810.59;6169716;23;44957;-91
2022/11/23 08:53:52;;;;;;;;;3.00;3.00;;;;;5.97;94.55;98598.28;6141885;23;47088;-89
2022/11/23 09:10:36;;;;;;;;;2.00;2.00;;;;;5.07;94.06;98442.13;6074905;23;44585;-93
2022/11/23 09:13:40;;;;;;;;;;;;;;;;;;;;;
2022/11/23 09:16:11;;;;;;;;;1.00;1.00;;;;;6.65;94.21;98673.88;6025160;23;69142;-91
2022/11/23 09:19:06;;;;;;;;;4.00;2.75;;;;;6.49;94.37;98631.56;6043591;23;47143;-93
2022/11/23 09:21:57;;;;;;;;;3.25;1.75;;;;;5.34;94.70;98456.09;6002700;23;44738;-95
2022/11/23 09:24:24;;;;;;;;;5.00;4.00;;;;;5.59;94.82;98507.75;6045409;23;45222;-93
2022/11/23 09:27:34;;;;;;;;;5.00;2.75;;;;;5.61;94.95;98495.44;6029301;23;45324;-93
2022/11/23 09:51:32;;;;;;;;;2.00;2.00;;;;;6.90;96.62;98695.75;6022452;23;44696;-92
2022/11/23 09:57:31;;;;;;;;;2.00;2.00;;;;;5.61;97.89;98469.22;6025742;23;45175;-91
2022/11/23 10:03:23;;;;;;;;;1.25;1.25;;;;;6.96;98.27;98705.19;6073694;23;45149;-94
2022/11/23 10:06:32;;;;;;;;;3.00;2.50;;;;;7.28;97.66;98738.22;6054667;23;44790;-95
2022/11/23 10:09:25;;;;;;;;;2.00;2.00;;;;;7.31;98.83;98762.69;6043752;23;47638;-94
2022/11/23 10:11:50;;;;;;;;;3.50;2.50;;;;;7.27;99.34;98748.78;6073096;23;45218;-91
2022/11/23 10:14:34;;;;;;;;;2.00;2.00;;;;;7.27;99.27;98736.53;6069263;23;45306;-91
2022/11/23 10:17:32;;;;;;;;;0.50;0.25;;;;;7.27;99.78;98748.78;6073660;23;45339;-91
2022/11/23 10:20:19;;;;;;;;;2.00;1.00;;;;;7.24;99.74;98752.41;6076542;23;45372;-89
2022/11/23 10:22:58;;;;;;;;;2.25;2.25;;;;;7.26;100.00;98782.09;6078083;23;45351;-91
2022/11/23 10:25:26;;;;;;;;;2.00;2.00;;;;;6.56;100.00;98668.03;6073640;23;45381;-92
2022/11/23 10:27:59;;;;;;;;;3.00;2.25;;;;;5.96;100.00;98566.81;6071494;23;45495;-92
2022/11/23 10:30:24;;;;;;;;;3.50;2.00;;;;;5.86;100.00;98553.13;6070471;23;46785;-90
2022/11/23 10:32:59;;;;;;;;;1.25;1.25;;;;;5.92;100.00;98579.19;6076525;23;45153;-91
2022/11/23 10:35:31;;;;;;;;;2.00;2.00;;;;;7.16;100.00;98804.34;6069686;23;45283;-88
2022/11/23 10:38:12;;;;;;;;;6.75;4.50;;;;;7.17;100.00;98782.41;6065732;23;45302;-89
2022/11/23 10:40:47;;;;;;;;;1.75;1.75;;;;;5.66;100.00;98556.41;6066716;23;47131;-89
2022/11/23 10:43:44;;;;;;;;;2.00;2.00;;;;;7.15;100.00;98792.13;6068077;23;45478;-91
2022/11/23 10:46:58;;;;;;;;;3.00;2.50;;;;;7.18;100.00;98794.66;6119107;23;45693;-91
2022/11/23 10:49:32;;;;;;;;;2.50;1.50;;;;;7.25;100.00;98814.53;6158917;23;45259;-92
2022/11/23 10:52:04;;;;;;;;;4.00;2.50;;;;;6.47;100.00;98681.47;6135465;23;47387;-89
2022/11/23 10:54:34;;;;;;;;;1.25;0.75;;;;;5.45;100.00;98495.94;6131554;23;45210;-88
2022/11/23 10:57:34;;;;;;;;;2.50;2.50;;;;;6.93;100.00;98724.53;6133685;23;45403;-91
2022/11/23 11:00:16;;;;;;;;;1.00;1.00;;;;;7.01;100.00;98761.06;6136283;23;45194;-89
2022/11/23 11:02:45;;;;;;;;;1.00;1.00;;;;;7.48;100.00;98791.84;6137569;23;46225;-90
2022/11/23 11:05:39;;;;;;;;;2.00;2.00;;;;;7.54;100.00;98807.41;6131750;23;45307;-90
2022/11/23 11:08:21;;;;;;;;;2.00;2.00;;;;;6.05;100.00;98548.19;6138432;23;44670;-90
2022/11/23 11:10:56;;;;;;;;;4.00;3.00;;;;;7.67;100.00;98825.38;6136788;23;45206;-89
2022/11/23 11:13:23;;;;;;;;;0.50;0.50;;;;;7.37;100.00;98736.19;6162688;23;45514;-89
2022/11/23 11:16:17;;;;;;;;;3.00;1.75;;;;;7.80;100.00;98817.00;6135238;23;45225;-91
2022/11/23 11:18:48;;;;;;;;;2.50;2.50;;;;;6.44;100.00;98581.84;6090693;23;45162;-90
2022/11/23 11:21:21;;;;;;;;;4.00;3.50;;;;;7.90;100.00;98824.56;6127465;23;45353;-89
2022/11/23 11:24:23;;;;;;;;;;;;;;;;;;;;;
2022/11/23 11:26:58;;;;;;;;;2.25;2.00;;;;;6.76;100.00;98614.00;6164130;23;72035;-92
2022/11/23 11:29:31;;;;;;;;;3.00;3.00;;;;;6.76;100.00;98595.59;6138945;23;45105;-91
2022/11/23 11:32:26;;;;;;;;;4.50;3.00;;;;;8.26;100.00;98838.13;6141753;23;45148;-92
2022/11/23 11:34:59;;;;;;;;;2.50;2.50;;;;;8.38;100.00;98846.44;6130831;23;46156;-91
2022/11/23 11:37:44;;;;;;;;;2.50;2.50;;;;;7.50;100.00;98691.91;6162181;23;45410;-91
2022/11/23 11:40:48;;;;;;;;;2.00;2.00;;;;;8.60;100.00;98836.81;6144246;23;44690;-92
2022/11/23 11:43:37;;;;;;;;;3.00;2.00;;;;;7.51;100.00;98652.41;6162331;23;45396;-92
2022/11/23 11:46:30;;;;;;;;;;;;;;;;;;;;;
2022/11/23 11:49:45;;;;;;;;;4.75;3.00;;;;;8.82;100.00;98806.97;6155215;23;71234;-93
2022/11/23 11:52:20;;;;;;;;;4.75;4.75;;;;;9.10;100.00;98787.41;6096689;23;45375;-92
2022/11/23 11:55:02;;;;;;;;;3.00;3.00;;;;;7.98;100.00;98591.81;6081106;23;45484;-90
2022/11/23 11:57:42;;;;;;;;;3.00;3.00;;;;;8.68;100.00;98699.56;6082321;23;47462;-92
2022/11/23 12:00:38;;;;;;;;;3.00;1.50;;;;;9.35;100.00;98782.81;6110378;23;45238;-91
2022/11/23 12:03:39;;;;;;;;;1.00;1.00;;;;;10.26;100.00;98865.84;6074898;23;45200;-91
2022/11/23 12:06:57;;;;;;;;;;;;;;;;;;;;;
2022/11/23 12:21:58;;;;;;;;;1.00;1.00;;;;;11.69;100.00;98875.72;6263063;22;45306;-91
2022/11/23 12:25:04;;;;;;;;;1.00;1.00;;;;;12.53;100.00;98880.19;6225205;22;45317;-89
2022/11/23 12:27:52;;;;;;;;;1.25;1.00;;;;;13.63;96.23;98890.78;6223020;22;45402;-91
2022/11/23 12:30:39;;;;;;;;;1.00;1.00;;;;;14.56;93.37;98886.00;6226910;22;45359;-92
2022/11/23 12:33:14;;;;;;;;;0.50;0.50;;;;;15.46;90.67;98887.28;6248358;22;45405;-90
2022/11/23 12:36:02;;;;;;;;;1.00;1.00;;;;;15.00;88.66;98682.84;6250286;22;45443;-89
2022/11/23 12:38:50;;;;;;;;;1.25;1.25;;;;;16.94;87.20;98889.53;6226585;22;45171;-89
2022/11/23 12:41:34;;;;;;;;;2.00;1.00;;;;;17.51;84.27;98884.47;6224022;22;44872;-89
2022/11/23 12:44:27;;;;;;;;;3.00;1.00;;;;;17.97;82.88;98896.19;6249579;22;45415;-92
2022/11/23 12:47:39;;;;;;;;;1.00;1.00;;;;;18.27;83.43;98891.09;6220305;22;45195;-90
2022/11/23 13:11:20;;;;;;;;;;;;;;;;;;;;;
2022/11/23 13:21:43;;;;;;;;;;;;;;;;;;;;;
2022/11/23 13:24:58;;;;;;;;;0.25;0.25;;;;;13.92;95.72;99008.53;5964952;23;46250;-91
2022/11/23 13:31:38;;;;;;;;;4.50;2.00;;;;;13.47;95.25;99029.69;5959841;23;45204;-94
2022/11/23 13:34:43;;;;;;;;;1.00;0.00;;;;;12.40;96.64;98898.53;5875084;24;44825;-92
2022/11/23 13:37:23;;;;;;;;;2.00;1.00;;;;;11.69;96.44;98775.16;5873338;24;46994;-92
2022/11/23 13:39:58;;;;;;;;;2.00;0.00;;;;;13.11;95.58;99043.16;5878867;24;45457;-92
2022/11/23 13:42:40;;;;;;;;;2.00;2.00;;;;;12.63;96.42;98984.72;5928211;24;45397;-92
2022/11/23 13:45:35;;;;;;;;;3.00;1.75;;;;;12.95;96.15;99064.34;5902340;24;45389;-92
2022/11/23 13:48:08;;;;;;;;;1.00;1.00;;;;;12.42;95.98;99007.97;5925960;24;45456;-93
2022/11/23 13:51:08;;;;;;;;;1.00;1.00;;;;;12.73;95.41;99075.25;5936221;24;45389;-93
2022/11/23 13:53:49;;;;;;;;;3.00;0.75;;;;;12.59;96.19;99084.78;5887838;24;44780;-91
2022/11/23 13:56:51;;;;;;;;;1.75;1.75;;;;;12.47;96.52;99100.47;5910251;24;45365;-91
2022/11/23 13:59:26;;;;;;;;;0.75;0.75;;;;;12.32;97.13;99102.94;5901142;24;45546;-92
2022/11/23 14:02:12;;;;;;;;;3.00;2.00;;;;;11.13;96.97;98930.53;5902557;24;45258;-92
2022/11/23 14:05:14;;;;;;;;;0.25;0.25;;;;;12.13;96.48;99113.59;5896497;24;45234;-92
2022/11/23 14:21:12;;;;;;;;;1.25;1.00;;;;;10.62;95.36;99036.81;6021878;23;45460;-92
2022/11/23 14:23:59;;;;;;;;;3.00;0.00;;;;;11.37;95.10;99180.66;6020586;23;46228;-92
2022/11/23 14:26:53;;;;;;;;;0.00;0.00;;;;;11.26;96.25;99193.50;5987898;23;45356;-92
2022/11/23 14:29:32;;;;;;;;;0.50;0.50;;;;;11.19;95.62;99200.84;6000307;23;45253;-92
2022/11/23 14:32:26;;;;;;;;;0.50;0.50;;;;;9.18;96.07;98874.94;6100253;23;44812;-92
2022/11/23 14:35:10;;;;;;;;;4.25;1.00;;;;;11.07;93.67;99217.25;6083075;23;45999;-90
2022/11/23 14:38:03;;;;;;;;;4.00;1.00;;;;;10.67;95.59;99176.66;6076155;23;45364;-92
2022/11/23 14:41:03;;;;;;;;;1.25;1.00;;;;;10.95;95.28;99229.22;6071852;23;45261;-91
2022/11/23 14:43:29;;;;;;;;;5.50;3.00;;;;;9.92;95.95;99077.66;6074725;23;45413;-91
2022/11/23 14:46:05;;;;;;;;;1.00;1.00;;;;;10.68;95.96;99215.38;6169241;23;46063;-91
2022/11/23 14:48:32;;;;;;;;;0.00;0.00;;;;;8.57;95.63;98876.44;6168077;23;45233;-92
2022/11/23 14:51:08;;;;;;;;;0.00;0.00;;;;;10.78;96.12;99237.88;6166854;23;45263;-91
2022/11/23 14:53:39;;;;;;;;;1.50;1.00;;;;;10.22;96.08;99167.06;6191979;23;45201;-92
2022/11/23 14:56:05;;;;;;;;;1.00;0.75;;;;;9.55;96.85;99060.63;6174390;23;47220;-92
2022/11/23 14:58:32;;;;;;;;;2.25;0.50;;;;;10.28;96.92;99190.59;6179147;23;44713;-92
2022/11/23 15:00:59;;;;;;;;;0.00;0.00;;;;;10.10;97.03;99166.63;6171786;23;45226;-92
2022/11/23 15:03:28;;;;;;;;;1.00;0.00;;;;;8.87;97.73;98986.84;6165655;23;45324;-91
2022/11/23 15:06:16;;;;;;;;;1.00;0.00;;;;;10.24;97.98;99220.69;6164527;23;46300;-91
2022/11/23 15:08:59;;;;;;;;;2.25;2.25;;;;;10.46;98.42;99274.41;6159937;23;45209;-92
2022/11/23 15:11:27;;;;;;;;;96.67;85.00;;;;;8.60;98.29;98976.41;6159365;23;45245;-91
2022/11/23 15:13:56;;;;;;;;;78.00;59.50;;;;;9.24;99.50;99111.94;6189368;23;45216;-91
2022/11/23 15:16:22;;;;;;;;;55.00;41.00;;;;;9.59;99.08;99186.22;6166828;23;47247;-92
2022/11/23 15:18:48;;;;;;;;;34.25;26.00;;;;;9.85;99.52;99247.72;6197116;23;45329;-90
2022/11/23 15:21:21;;;;;;;;;69.50;54.25;;;;;10.20;99.41;99324.69;6182489;22;44675;-90
2022/11/23 15:23:56;;;;;;;;;16.50;13.75;;;;;8.28;99.91;99020.53;6233966;22;44978;-91
2022/11/23 15:26:29;;;;;;;;;4.25;4.25;;;;;10.10;100.00;99343.53;6236875;22;45211;-90
2022/11/23 15:28:55;;;;;;;;;7.75;5.75;;;;;9.04;99.43;99168.88;6199975;22;45353;-90
2022/11/23 15:38:24;;;;;;;;;3.00;3.00;;;;;9.94;100.00;99348.53;6254002;22;45305;-89
2022/11/23 15:40:50;;;;;;;;;9.50;3.50;;;;;9.15;100.00;99230.91;6248273;22;45359;-91
2022/11/23 15:43:18;;;;;;;;;0.25;0.25;;;;;9.88;100.00;99369.00;6254293;22;45154;-89
2022/11/23 15:45:43;;;;;;;;;1.25;1.25;;;;;9.86;100.00;99353.22;6229419;22;45223;-90
2022/11/23 15:48:16;;;;;;;;;3.75;2.50;;;;;8.02;100.00;99058.28;6230710;22;46210;-90
2022/11/23 15:50:55;;;;;;;;;4.25;3.25;;;;;9.87;100.00;99369.91;6232978;22;44772;-90
2022/11/23 15:53:25;;;;;;;;;2.00;1.00;;;;;9.75;100.00;99345.69;6261635;22;45472;-90
2022/11/23 15:55:52;;;;;;;;;2.00;2.00;;;;;9.87;100.00;99381.34;6208297;22;44752;-91
2022/11/23 15:58:19;;;;;;;;;4.75;4.00;;;;;8.79;100.00;99199.66;6226261;22;46536;-90
2022/11/23 16:01:06;;;;;;;;;4.50;4.50;;;;;9.85;100.00;99387.56;6220967;22;45460;-90
2022/11/23 16:03:40;;;;;;;;;3.00;1.00;;;;;9.67;100.00;99362.69;6221986;22;45386;-90
2022/11/23 16:06:18;;;;;;;;;5.00;5.00;;;;;9.36;100.00;99348.81;6249172;22;45254;-90
2022/11/23 16:08:51;;;;;;;;;6.25;6.25;;;;;7.87;100.00;99080.69;6201434;22;47213;-89
2022/11/23 16:11:34;;;;;;;;;3.50;2.25;;;;;8.87;100.00;99252.97;6255025;22;45416;-88
2022/11/23 16:14:33;;;;;;;;;2.00;1.25;;;;;9.41;100.00;99368.00;6221943;22;45379;-91
2022/11/23 16:17:06;;;;;;;;;4.75;1.00;;;;;9.00;100.00;99330.69;6080061;23;45304;-91
2022/11/23 16:19:34;;;;;;;;;5.25;2.50;;;;;9.17;100.00;99352.97;6108287;23;46303;-92
2022/11/23 16:22:05;;;;;;;;;0.00;0.00;;;;;8.15;100.00;99190.31;6100530;23;45348;-90
2022/11/23 16:24:33;;;;;;;;;3.50;2.00;;;;;8.49;100.00;99249.81;6071721;23;45378;-91
2022/11/23 16:26:58;;;;;;;;;2.25;2.00;;;;;9.19;100.00;99373.13;6071423;23;45210;-91
2022/11/23 16:29:35;;;;;;;;;2.75;2.00;;;;;9.03;100.00;99372.78;6074716;23;46881;-90
2022/11/23 16:32:05;;;;;;;;;1.00;1.00;;;;;7.33;100.00;99092.88;6080665;23;45218;-91
2022/11/23 16:34:31;;;;;;;;;1.50;1.50;;;;;9.42;100.00;99455.88;6097389;23;45398;-91
2022/11/23 16:36:58;;;;;;;;;1.75;1.75;;;;;9.04;100.00;99415.78;6075555;23;45620;-91
2022/11/23 16:39:24;;;;;;;;;2.50;2.50;;;;;8.02;100.00;99260.91;6099887;23;47038;-89
2022/11/23 16:41:51;;;;;;;;;2.00;1.50;;;;;7.98;100.00;99248.75;6074586;23;45315;-90
2022/11/23 16:44:18;;;;;;;;;2.00;2.00;;;;;9.29;100.00;99473.84;6074528;23;45199;-91
2022/11/23 16:46:47;;;;;;;;;3.25;3.25;;;;;8.50;100.00;99356.88;6082995;23;44809;-90
2022/11/23 16:49:17;;;;;;;;;4.00;1.50;;;;;8.91;100.00;99433.75;6107332;23;46137;-91
2022/11/23 16:51:43;;;;;;;;;1.00;1.00;;;;;8.42;100.00;99358.84;6102562;22;45434;-89
2022/11/23 16:54:09;;;;;;;;;2.00;2.00;;;;;8.07;100.00;99319.50;6225500;22;45126;-90
2022/11/23 16:56:34;;;;;;;;;2.25;2.00;;;;;8.54;100.00;99396.22;6219622;22;45173;-92
2022/11/23 16:59:00;;;;;;;;;3.00;2.00;;;;;9.15;100.00;99519.13;6220865;22;47036;-91
2022/11/23 17:01:28;;;;;;;;;3.25;2.50;;;;;7.90;100.00;99320.00;6224259;22;45662;-90
2022/11/23 17:03:54;;;;;;;;;4.50;2.00;;;;;8.09;100.00;99358.94;6228879;22;45292;-90
2022/11/23 17:06:23;;;;;;;;;3.75;2.75;;;;;7.90;100.00;99346.31;6227344;22;45159;-91
2022/11/23 17:08:50;;;;;;;;;2.50;2.50;;;;;8.15;100.00;99385.97;6230274;22;47175;-90
2022/11/23 17:11:19;;;;;;;;;5.25;2.50;;;;;7.80;100.00;99329.06;6237594;22;45293;-90
2022/11/23 17:13:47;;;;;;;;;4.25;2.00;;;;;7.73;100.00;99317.88;6233048;22;45127;-91
2022/11/23 17:16:15;;;;;;;;;3.75;2.50;;;;;9.07;100.00;99558.91;6260697;22;45143;-91
2022/11/23 17:18:41;;;;;;;;;6.50;5.00;;;;;7.41;100.00;99271.41;6230887;22;46933;-92
2022/11/23 17:21:06;;;;;;;;;1.25;0.00;;;;;8.47;100.00;99451.78;6197137;22;45366;-91
2022/11/23 17:23:31;;;;;;;;;5.50;4.25;;;;;8.00;100.00;99376.72;6220525;22;45370;-90
2022/11/23 17:25:57;;;;;;;;;3.00;3.00;;;;;6.92;100.00;99198.28;6218747;22;45353;-92
2022/11/23 17:28:23;;;;;;;;;4.75;4.75;;;;;9.16;100.00;99567.44;6218744;22;47844;-91
2022/11/23 17:30:50;;;;;;;;;6.75;4.00;;;;;8.89;100.00;99549.75;6222828;22;45326;-91
2022/11/23 17:33:16;;;;;;;;;6.50;4.75;;;;;8.68;100.00;99493.31;6250257;22;45322;-91
2022/11/23 17:35:42;;;;;;;;;4.75;3.50;;;;;8.78;100.00;99529.91;6221597;22;45602;-90
2022/11/23 17:38:18;;;;;;;;;7.50;3.00;;;;;9.11;100.00;99585.16;6250883;22;46449;-91